Boyang, China
Current Conditions -  °F | °C
As of 1:00 PM on Thursday 23 Oct 2014 (Local Time) from ZHHH Reporting Station
Clear Clear  
Wind Chill: 75°   Ceiling: Unl
Heat Index: 75°   Visibility: 4mi
Dew Point: 57°   Wind: 7mph
Humidity: 53%   Direction: 210°SSW
Pressure: 30.06"   Gusts: NA
Location:  28.98°N, 116.67°E
Report Text: ZHHH 230500Z 21003MPS 100V270 6000 NSC 24/14 Q1018 NOSIG
Loading
Personal Weather Stations






























Interactive Weather Map
Tropical Storm Tracking
New forecast layout! Learn more

10-Day Weather Forecast

Advertisements
Track Severe Weather on mobile